sensor_id;sensor_type;location;lat;lon;timestamp;P1;durP1;ratioP1;P2;durP2;ratioP2
58768;SDS011;44536;47.474;19.056;2023-04-24T00:01:22;12.55;;;8.57;;
58768;SDS011;44536;47.474;19.056;2023-04-24T00:04:25;11.68;;;7.50;;
58768;SDS011;44536;47.474;19.056;2023-04-24T00:07:28;14.03;;;7.63;;
58768;SDS011;44536;47.474;19.056;2023-04-24T00:10:31;12.60;;;8.27;;
58768;SDS011;44536;47.474;19.056;2023-04-24T00:13:34;11.57;;;7.55;;
58768;SDS011;44536;47.474;19.056;2023-04-24T00:16:36;10.63;;;7.30;;
58768;SDS011;44536;47.474;19.056;2023-04-24T00:19:39;10.38;;;7.07;;
58768;SDS011;44536;47.474;19.056;2023-04-24T00:22:42;13.13;;;8.65;;
58768;SDS011;44536;47.474;19.056;2023-04-24T00:25:44;11.18;;;7.25;;
58768;SDS011;44536;47.474;19.056;2023-04-24T00:28:46;10.10;;;7.12;;
58768;SDS011;44536;47.474;19.056;2023-04-24T00:31:49;12.05;;;7.30;;
58768;SDS011;44536;47.474;19.056;2023-04-24T00:34:51;12.93;;;8.85;;
58768;SDS011;44536;47.474;19.056;2023-04-24T00:37:54;12.65;;;9.27;;
58768;SDS011;44536;47.474;19.056;2023-04-24T00:40:56;14.97;;;7.67;;
58768;SDS011;44536;47.474;19.056;2023-04-24T00:43:59;11.65;;;7.82;;
58768;SDS011;44536;47.474;19.056;2023-04-24T00:47:02;10.93;;;7.80;;
58768;SDS011;44536;47.474;19.056;2023-04-24T00:50:05;13.02;;;8.27;;
58768;SDS011;44536;47.474;19.056;2023-04-24T00:53:09;11.25;;;8.68;;
58768;SDS011;44536;47.474;19.056;2023-04-24T00:56:11;13.25;;;8.10;;
58768;SDS011;44536;47.474;19.056;2023-04-24T00:59:15;12.85;;;8.43;;
58768;SDS011;44536;47.474;19.056;2023-04-24T01:02:18;13.50;;;8.98;;
58768;SDS011;44536;47.474;19.056;2023-04-24T01:05:22;12.45;;;8.40;;
58768;SDS011;44536;47.474;19.056;2023-04-24T01:08:24;13.18;;;8.90;;
58768;SDS011;44536;47.474;19.056;2023-04-24T01:11:28;11.63;;;8.32;;
58768;SDS011;44536;47.474;19.056;2023-04-24T01:14:31;12.27;;;8.20;;
58768;SDS011;44536;47.474;19.056;2023-04-24T01:17:35;13.88;;;8.50;;
58768;SDS011;44536;47.474;19.056;2023-04-24T01:20:39;9.38;;;7.85;;
58768;SDS011;44536;47.474;19.056;2023-04-24T01:23:43;11.73;;;8.63;;
58768;SDS011;44536;47.474;19.056;2023-04-24T01:26:46;12.93;;;7.90;;
58768;SDS011;44536;47.474;19.056;2023-04-24T01:29:49;12.00;;;9.00;;
58768;SDS011;44536;47.474;19.056;2023-04-24T01:32:53;15.90;;;9.25;;
58768;SDS011;44536;47.474;19.056;2023-04-24T01:35:57;13.88;;;9.00;;
58768;SDS011;44536;47.474;19.056;2023-04-24T01:39:00;14.52;;;10.70;;
58768;SDS011;44536;47.474;19.056;2023-04-24T01:42:03;12.63;;;9.25;;
58768;SDS011;44536;47.474;19.056;2023-04-24T01:45:06;14.13;;;9.50;;
58768;SDS011;44536;47.474;19.056;2023-04-24T01:48:12;12.13;;;8.65;;
58768;SDS011;44536;47.474;19.056;2023-04-24T01:51:15;14.02;;;9.38;;
58768;SDS011;44536;47.474;19.056;2023-04-24T01:54:17;18.27;;;9.82;;
58768;SDS011;44536;47.474;19.056;2023-04-24T01:57:20;13.95;;;10.18;;
58768;SDS011;44536;47.474;19.056;2023-04-24T02:00:22;13.65;;;10.48;;
58768;SDS011;44536;47.474;19.056;2023-04-24T02:03:26;13.30;;;10.63;;
58768;SDS011;44536;47.474;19.056;2023-04-24T02:06:30;15.05;;;9.85;;
58768;SDS011;44536;47.474;19.056;2023-04-24T02:09:35;21.87;;;12.98;;
58768;SDS011;44536;47.474;19.056;2023-04-24T02:12:37;16.90;;;11.60;;
58768;SDS011;44536;47.474;19.056;2023-04-24T02:15:39;14.40;;;10.25;;
58768;SDS011;44536;47.474;19.056;2023-04-24T02:18:42;17.05;;;11.20;;
58768;SDS011;44536;47.474;19.056;2023-04-24T02:21:44;17.58;;;11.02;;
58768;SDS011;44536;47.474;19.056;2023-04-24T02:24:47;17.92;;;11.52;;
58768;SDS011;44536;47.474;19.056;2023-04-24T02:27:49;20.63;;;12.90;;
58768;SDS011;44536;47.474;19.056;2023-04-24T02:30:52;20.75;;;11.90;;
58768;SDS011;44536;47.474;19.056;2023-04-24T02:33:56;15.70;;;10.90;;
58768;SDS011;44536;47.474;19.056;2023-04-24T02:36:58;19.87;;;14.32;;
58768;SDS011;44536;47.474;19.056;2023-04-24T02:40:01;15.80;;;11.48;;
58768;SDS011;44536;47.474;19.056;2023-04-24T02:43:03;19.40;;;11.18;;
58768;SDS011;44536;47.474;19.056;2023-04-24T02:46:06;17.60;;;12.37;;
58768;SDS011;44536;47.474;19.056;2023-04-24T02:49:08;16.73;;;12.93;;
58768;SDS011;44536;47.474;19.056;2023-04-24T02:52:11;18.45;;;12.05;;
58768;SDS011;44536;47.474;19.056;2023-04-24T02:55:13;18.23;;;12.80;;
58768;SDS011;44536;47.474;19.056;2023-04-24T02:58:16;15.65;;;11.98;;
58768;SDS011;44536;47.474;19.056;2023-04-24T03:01:19;17.57;;;13.03;;
58768;SDS011;44536;47.474;19.056;2023-04-24T03:04:21;15.13;;;11.02;;
58768;SDS011;44536;47.474;19.056;2023-04-24T03:07:24;15.03;;;11.37;;
58768;SDS011;44536;47.474;19.056;2023-04-24T03:10:27;15.77;;;11.43;;
58768;SDS011;44536;47.474;19.056;2023-04-24T03:13:29;15.13;;;11.63;;
58768;SDS011;44536;47.474;19.056;2023-04-24T03:16:31;14.98;;;11.35;;
58768;SDS011;44536;47.474;19.056;2023-04-24T03:19:35;16.02;;;9.85;;
58768;SDS011;44536;47.474;19.056;2023-04-24T03:22:38;16.20;;;11.27;;
58768;SDS011;44536;47.474;19.056;2023-04-24T03:25:40;16.40;;;10.57;;
58768;SDS011;44536;47.474;19.056;2023-04-24T03:28:45;13.57;;;10.73;;
58768;SDS011;44536;47.474;19.056;2023-04-24T03:31:47;16.65;;;9.93;;
58768;SDS011;44536;47.474;19.056;2023-04-24T03:34:50;12.95;;;9.98;;
58768;SDS011;44536;47.474;19.056;2023-04-24T03:37:52;16.08;;;10.38;;
58768;SDS011;44536;47.474;19.056;2023-04-24T03:40:57;17.25;;;10.52;;
58768;SDS011;44536;47.474;19.056;2023-04-24T03:44:02;15.02;;;11.20;;
58768;SDS011;44536;47.474;19.056;2023-04-24T03:47:05;12.83;;;10.37;;
58768;SDS011;44536;47.474;19.056;2023-04-24T03:50:07;16.23;;;11.10;;
58768;SDS011;44536;47.474;19.056;2023-04-24T03:53:13;14.30;;;10.35;;
58768;SDS011;44536;47.474;19.056;2023-04-24T03:56:15;16.12;;;10.43;;
58768;SDS011;44536;47.474;19.056;2023-04-24T03:59:18;18.17;;;11.50;;
58768;SDS011;44536;47.474;19.056;2023-04-24T04:02:27;15.77;;;10.65;;
58768;SDS011;44536;47.474;19.056;2023-04-24T04:05:29;19.05;;;11.65;;
58768;SDS011;44536;47.474;19.056;2023-04-24T04:08:32;17.75;;;11.12;;
58768;SDS011;44536;47.474;19.056;2023-04-24T04:14:38;14.07;;;9.88;;
58768;SDS011;44536;47.474;19.056;2023-04-24T04:17:40;16.73;;;11.23;;
58768;SDS011;44536;47.474;19.056;2023-04-24T04:20:43;15.63;;;11.48;;
58768;SDS011;44536;47.474;19.056;2023-04-24T04:23:47;15.10;;;11.40;;
58768;SDS011;44536;47.474;19.056;2023-04-24T04:29:54;14.60;;;10.77;;
58768;SDS011;44536;47.474;19.056;2023-04-24T04:32:59;13.88;;;10.82;;
58768;SDS011;44536;47.474;19.056;2023-04-24T04:36:02;15.27;;;10.40;;
58768;SDS011;44536;47.474;19.056;2023-04-24T04:39:06;15.50;;;10.48;;
58768;SDS011;44536;47.474;19.056;2023-04-24T04:42:13;15.52;;;10.90;;
58768;SDS011;44536;47.474;19.056;2023-04-24T04:45:15;17.03;;;10.90;;
58768;SDS011;44536;47.474;19.056;2023-04-24T04:48:21;18.42;;;11.77;;
58768;SDS011;44536;47.474;19.056;2023-04-24T04:51:24;13.68;;;10.68;;
58768;SDS011;44536;47.474;19.056;2023-04-24T04:54:27;17.00;;;12.90;;
58768;SDS011;44536;47.474;19.056;2023-04-24T04:57:30;14.10;;;10.70;;
58768;SDS011;44536;47.474;19.056;2023-04-24T05:00:33;14.37;;;9.73;;
58768;SDS011;44536;47.474;19.056;2023-04-24T05:03:39;14.73;;;11.30;;
58768;SDS011;44536;47.474;19.056;2023-04-24T05:06:44;16.60;;;11.10;;
58768;SDS011;44536;47.474;19.056;2023-04-24T05:09:50;14.23;;;10.68;;
58768;SDS011;44536;47.474;19.056;2023-04-24T05:12:54;15.52;;;10.93;;
58768;SDS011;44536;47.474;19.056;2023-04-24T05:15:57;14.63;;;10.43;;
58768;SDS011;44536;47.474;19.056;2023-04-24T05:19:00;19.08;;;12.13;;
58768;SDS011;44536;47.474;19.056;2023-04-24T05:22:03;18.65;;;11.05;;
58768;SDS011;44536;47.474;19.056;2023-04-24T05:25:09;17.08;;;10.77;;
58768;SDS011;44536;47.474;19.056;2023-04-24T05:28:12;16.17;;;10.73;;
58768;SDS011;44536;47.474;19.056;2023-04-24T05:31:15;17.17;;;11.20;;
58768;SDS011;44536;47.474;19.056;2023-04-24T05:34:19;16.77;;;12.37;;
58768;SDS011;44536;47.474;19.056;2023-04-24T05:37:23;15.52;;;11.30;;
58768;SDS011;44536;47.474;19.056;2023-04-24T05:40:26;19.45;;;11.27;;
58768;SDS011;44536;47.474;19.056;2023-04-24T05:43:28;16.12;;;11.68;;
58768;SDS011;44536;47.474;19.056;2023-04-24T05:46:30;16.02;;;10.82;;
58768;SDS011;44536;47.474;19.056;2023-04-24T05:49:33;14.35;;;11.07;;
58768;SDS011;44536;47.474;19.056;2023-04-24T05:52:35;13.98;;;11.07;;
58768;SDS011;44536;47.474;19.056;2023-04-24T05:55:39;16.95;;;10.52;;
58768;SDS011;44536;47.474;19.056;2023-04-24T05:58:41;15.18;;;10.85;;
58768;SDS011;44536;47.474;19.056;2023-04-24T06:01:44;16.02;;;11.23;;
58768;SDS011;44536;47.474;19.056;2023-04-24T06:04:48;14.60;;;10.82;;
58768;SDS011;44536;47.474;19.056;2023-04-24T06:10:55;14.43;;;10.55;;
58768;SDS011;44536;47.474;19.056;2023-04-24T06:13:59;14.63;;;10.75;;
58768;SDS011;44536;47.474;19.056;2023-04-24T06:17:05;15.50;;;10.15;;
58768;SDS011;44536;47.474;19.056;2023-04-24T06:20:08;17.15;;;12.15;;
58768;SDS011;44536;47.474;19.056;2023-04-24T06:23:11;18.42;;;11.93;;
58768;SDS011;44536;47.474;19.056;2023-04-24T06:26:13;16.10;;;11.73;;
58768;SDS011;44536;47.474;19.056;2023-04-24T06:29:16;15.20;;;11.57;;
58768;SDS011;44536;47.474;19.056;2023-04-24T06:32:19;14.00;;;12.37;;
58768;SDS011;44536;47.474;19.056;2023-04-24T06:35:22;15.05;;;11.18;;
58768;SDS011;44536;47.474;19.056;2023-04-24T06:38:25;17.10;;;12.10;;
58768;SDS011;44536;47.474;19.056;2023-04-24T06:41:27;14.23;;;11.20;;
58768;SDS011;44536;47.474;19.056;2023-04-24T06:44:30;14.32;;;11.05;;
58768;SDS011;44536;47.474;19.056;2023-04-24T06:47:33;15.73;;;10.48;;
58768;SDS011;44536;47.474;19.056;2023-04-24T06:50:35;13.75;;;10.35;;
58768;SDS011;44536;47.474;19.056;2023-04-24T06:53:38;17.05;;;10.07;;
58768;SDS011;44536;47.474;19.056;2023-04-24T06:56:41;13.38;;;10.25;;
58768;SDS011;44536;47.474;19.056;2023-04-24T06:59:43;16.13;;;10.60;;
58768;SDS011;44536;47.474;19.056;2023-04-24T07:02:46;15.02;;;10.02;;
58768;SDS011;44536;47.474;19.056;2023-04-24T07:05:49;13.98;;;9.85;;
58768;SDS011;44536;47.474;19.056;2023-04-24T07:08:52;12.95;;;9.77;;
58768;SDS011;44536;47.474;19.056;2023-04-24T07:11:56;13.60;;;10.63;;
58768;SDS011;44536;47.474;19.056;2023-04-24T07:14:58;14.05;;;10.80;;
58768;SDS011;44536;47.474;19.056;2023-04-24T07:18:01;14.63;;;10.68;;
58768;SDS011;44536;47.474;19.056;2023-04-24T07:21:07;13.07;;;10.27;;
58768;SDS011;44536;47.474;19.056;2023-04-24T07:24:09;14.87;;;11.63;;
58768;SDS011;44536;47.474;19.056;2023-04-24T07:27:12;15.82;;;11.75;;
58768;SDS011;44536;47.474;19.056;2023-04-24T07:30:17;18.33;;;10.35;;
58768;SDS011;44536;47.474;19.056;2023-04-24T07:33:19;16.02;;;11.20;;
58768;SDS011;44536;47.474;19.056;2023-04-24T07:36:22;17.65;;;10.95;;
58768;SDS011;44536;47.474;19.056;2023-04-24T07:42:29;16.67;;;11.73;;
58768;SDS011;44536;47.474;19.056;2023-04-24T07:45:36;14.85;;;11.38;;
58768;SDS011;44536;47.474;19.056;2023-04-24T07:48:39;16.25;;;10.82;;
58768;SDS011;44536;47.474;19.056;2023-04-24T07:51:42;16.33;;;11.18;;
58768;SDS011;44536;47.474;19.056;2023-04-24T07:54:44;17.17;;;10.98;;
58768;SDS011;44536;47.474;19.056;2023-04-24T07:57:46;16.27;;;10.23;;
58768;SDS011;44536;47.474;19.056;2023-04-24T08:00:49;15.25;;;10.52;;
58768;SDS011;44536;47.474;19.056;2023-04-24T08:03:55;18.17;;;9.70;;
58768;SDS011;44536;47.474;19.056;2023-04-24T08:06:59;14.50;;;9.90;;
58768;SDS011;44536;47.474;19.056;2023-04-24T08:10:02;14.43;;;10.37;;
58768;SDS011;44536;47.474;19.056;2023-04-24T08:13:04;13.13;;;9.35;;
58768;SDS011;44536;47.474;19.056;2023-04-24T08:16:07;14.50;;;9.70;;
58768;SDS011;44536;47.474;19.056;2023-04-24T08:19:09;13.38;;;10.13;;
58768;SDS011;44536;47.474;19.056;2023-04-24T08:22:12;16.00;;;11.55;;
58768;SDS011;44536;47.474;19.056;2023-04-24T08:25:14;13.25;;;8.77;;
58768;SDS011;44536;47.474;19.056;2023-04-24T08:28:17;16.60;;;9.83;;
58768;SDS011;44536;47.474;19.056;2023-04-24T08:31:22;15.98;;;9.98;;
58768;SDS011;44536;47.474;19.056;2023-04-24T08:34:24;14.30;;;9.95;;
58768;SDS011;44536;47.474;19.056;2023-04-24T08:37:27;14.25;;;11.27;;
58768;SDS011;44536;47.474;19.056;2023-04-24T08:40:29;13.45;;;10.40;;
58768;SDS011;44536;47.474;19.056;2023-04-24T08:43:35;12.13;;;9.90;;
58768;SDS011;44536;47.474;19.056;2023-04-24T08:49:42;11.93;;;9.37;;
58768;SDS011;44536;47.474;19.056;2023-04-24T08:55:48;15.25;;;9.68;;
58768;SDS011;44536;47.474;19.056;2023-04-24T08:58:53;15.20;;;9.98;;
58768;SDS011;44536;47.474;19.056;2023-04-24T09:01:57;15.50;;;9.75;;
58768;SDS011;44536;47.474;19.056;2023-04-24T09:05:00;16.52;;;9.57;;
58768;SDS011;44536;47.474;19.056;2023-04-24T09:11:06;16.47;;;11.53;;
58768;SDS011;44536;47.474;19.056;2023-04-24T09:17:13;17.10;;;10.05;;
58768;SDS011;44536;47.474;19.056;2023-04-24T09:20:15;14.63;;;9.27;;
58768;SDS011;44536;47.474;19.056;2023-04-24T09:23:18;15.60;;;9.10;;
58768;SDS011;44536;47.474;19.056;2023-04-24T09:26:20;14.27;;;8.98;;
58768;SDS011;44536;47.474;19.056;2023-04-24T09:29:24;14.32;;;10.40;;
58768;SDS011;44536;47.474;19.056;2023-04-24T09:32:27;15.10;;;8.52;;
58768;SDS011;44536;47.474;19.056;2023-04-24T09:35:32;16.20;;;9.27;;
58768;SDS011;44536;47.474;19.056;2023-04-24T09:38:35;12.17;;;8.47;;
58768;SDS011;44536;47.474;19.056;2023-04-24T09:41:49;12.80;;;8.48;;
58768;SDS011;44536;47.474;19.056;2023-04-24T09:44:53;13.80;;;8.70;;
58768;SDS011;44536;47.474;19.056;2023-04-24T09:48:09;14.77;;;8.25;;
58768;SDS011;44536;47.474;19.056;2023-04-24T09:51:13;9.75;;;7.18;;
58768;SDS011;44536;47.474;19.056;2023-04-24T09:54:20;20.12;;;8.48;;
58768;SDS011;44536;47.474;19.056;2023-04-24T09:57:23;13.90;;;9.25;;
58768;SDS011;44536;47.474;19.056;2023-04-24T10:00:30;11.77;;;7.00;;
58768;SDS011;44536;47.474;19.056;2023-04-24T10:03:34;11.15;;;7.78;;
58768;SDS011;44536;47.474;19.056;2023-04-24T10:06:37;11.55;;;7.70;;
58768;SDS011;44536;47.474;19.056;2023-04-24T10:09:39;15.75;;;8.00;;
58768;SDS011;44536;47.474;19.056;2023-04-24T10:12:42;13.48;;;7.82;;
58768;SDS011;44536;47.474;19.056;2023-04-24T10:15:46;11.52;;;7.45;;
58768;SDS011;44536;47.474;19.056;2023-04-24T10:18:51;15.63;;;7.82;;
58768;SDS011;44536;47.474;19.056;2023-04-24T10:21:54;10.80;;;7.10;;
58768;SDS011;44536;47.474;19.056;2023-04-24T10:24:58;14.07;;;6.60;;
58768;SDS011;44536;47.474;19.056;2023-04-24T10:28:01;9.35;;;6.53;;
58768;SDS011;44536;47.474;19.056;2023-04-24T10:31:04;9.65;;;6.93;;
58768;SDS011;44536;47.474;19.056;2023-04-24T10:34:08;10.27;;;6.87;;
58768;SDS011;44536;47.474;19.056;2023-04-24T10:37:11;11.38;;;7.50;;
58768;SDS011;44536;47.474;19.056;2023-04-24T10:40:17;13.35;;;7.62;;
58768;SDS011;44536;47.474;19.056;2023-04-24T10:43:28;13.05;;;8.68;;
58768;SDS011;44536;47.474;19.056;2023-04-24T10:46:30;12.07;;;8.10;;
58768;SDS011;44536;47.474;19.056;2023-04-24T10:49:33;10.93;;;8.03;;
58768;SDS011;44536;47.474;19.056;2023-04-24T10:52:45;11.67;;;7.43;;
58768;SDS011;44536;47.474;19.056;2023-04-24T10:55:49;15.13;;;8.90;;
58768;SDS011;44536;47.474;19.056;2023-04-24T10:58:53;12.45;;;8.55;;
58768;SDS011;44536;47.474;19.056;2023-04-24T11:01:55;12.60;;;8.53;;
58768;SDS011;44536;47.474;19.056;2023-04-24T11:04:58;14.20;;;9.63;;
58768;SDS011;44536;47.474;19.056;2023-04-24T11:08:12;12.50;;;8.73;;
58768;SDS011;44536;47.474;19.056;2023-04-24T11:11:16;12.68;;;8.82;;
58768;SDS011;44536;47.474;19.056;2023-04-24T11:14:19;14.15;;;9.20;;
58768;SDS011;44536;47.474;19.056;2023-04-24T11:17:34;12.85;;;7.75;;
58768;SDS011;44536;47.474;19.056;2023-04-24T11:20:46;13.45;;;9.15;;
58768;SDS011;44536;47.474;19.056;2023-04-24T11:23:48;10.45;;;7.43;;
58768;SDS011;44536;47.474;19.056;2023-04-24T11:30:00;13.35;;;8.50;;
58768;SDS011;44536;47.474;19.056;2023-04-24T11:33:05;13.27;;;7.60;;
58768;SDS011;44536;47.474;19.056;2023-04-24T11:36:08;11.68;;;7.85;;
58768;SDS011;44536;47.474;19.056;2023-04-24T11:39:10;13.20;;;8.98;;
58768;SDS011;44536;47.474;19.056;2023-04-24T11:42:14;14.07;;;9.35;;
58768;SDS011;44536;47.474;19.056;2023-04-24T11:45:18;12.65;;;8.25;;
58768;SDS011;44536;47.474;19.056;2023-04-24T11:48:23;12.93;;;8.00;;
58768;SDS011;44536;47.474;19.056;2023-04-24T11:51:26;12.73;;;9.03;;
58768;SDS011;44536;47.474;19.056;2023-04-24T11:54:37;12.50;;;10.10;;
58768;SDS011;44536;47.474;19.056;2023-04-24T11:57:42;13.13;;;8.73;;
58768;SDS011;44536;47.474;19.056;2023-04-24T12:00:54;10.93;;;8.27;;
58768;SDS011;44536;47.474;19.056;2023-04-24T12:03:59;12.13;;;8.35;;
58768;SDS011;44536;47.474;19.056;2023-04-24T12:07:03;12.45;;;9.40;;
58768;SDS011;44536;47.474;19.056;2023-04-24T12:10:07;14.57;;;10.25;;
58768;SDS011;44536;47.474;19.056;2023-04-24T12:13:11;14.38;;;10.18;;
58768;SDS011;44536;47.474;19.056;2023-04-24T12:16:13;13.15;;;10.25;;
58768;SDS011;44536;47.474;19.056;2023-04-24T12:19:25;13.50;;;9.07;;
58768;SDS011;44536;47.474;19.056;2023-04-24T12:25:50;13.30;;;9.15;;
58768;SDS011;44536;47.474;19.056;2023-04-24T12:28:53;12.25;;;8.45;;
58768;SDS011;44536;47.474;19.056;2023-04-24T12:31:56;12.50;;;8.70;;
58768;SDS011;44536;47.474;19.056;2023-04-24T12:34:58;12.02;;;8.00;;
58768;SDS011;44536;47.474;19.056;2023-04-24T12:38:11;12.07;;;9.10;;
58768;SDS011;44536;47.474;19.056;2023-04-24T12:41:15;16.12;;;9.13;;
58768;SDS011;44536;47.474;19.056;2023-04-24T12:44:17;16.23;;;8.38;;
58768;SDS011;44536;47.474;19.056;2023-04-24T12:47:20;12.10;;;8.23;;
58768;SDS011;44536;47.474;19.056;2023-04-24T12:50:23;13.60;;;8.03;;
58768;SDS011;44536;47.474;19.056;2023-04-24T12:53:25;12.07;;;7.20;;
58768;SDS011;44536;47.474;19.056;2023-04-24T12:56:28;10.75;;;6.22;;
58768;SDS011;44536;47.474;19.056;2023-04-24T12:59:30;11.37;;;7.67;;
58768;SDS011;44536;47.474;19.056;2023-04-24T13:02:33;12.00;;;7.20;;
58768;SDS011;44536;47.474;19.056;2023-04-24T13:05:37;11.10;;;6.62;;
58768;SDS011;44536;47.474;19.056;2023-04-24T13:08:39;12.10;;;6.50;;
58768;SDS011;44536;47.474;19.056;2023-04-24T13:11:42;12.60;;;6.13;;
58768;SDS011;44536;47.474;19.056;2023-04-24T13:14:44;11.98;;;6.62;;
58768;SDS011;44536;47.474;19.056;2023-04-24T13:17:47;15.30;;;6.62;;
58768;SDS011;44536;47.474;19.056;2023-04-24T13:20:50;10.00;;;5.32;;
58768;SDS011;44536;47.474;19.056;2023-04-24T13:23:52;9.57;;;6.37;;
58768;SDS011;44536;47.474;19.056;2023-04-24T13:26:54;8.88;;;5.00;;
58768;SDS011;44536;47.474;19.056;2023-04-24T13:29:58;8.65;;;4.40;;
58768;SDS011;44536;47.474;19.056;2023-04-24T13:36:05;7.45;;;4.12;;
58768;SDS011;44536;47.474;19.056;2023-04-24T13:39:07;7.55;;;4.28;;
58768;SDS011;44536;47.474;19.056;2023-04-24T13:42:10;13.60;;;5.90;;
58768;SDS011;44536;47.474;19.056;2023-04-24T13:45:12;6.60;;;3.95;;
58768;SDS011;44536;47.474;19.056;2023-04-24T13:48:26;9.02;;;4.68;;
58768;SDS011;44536;47.474;19.056;2023-04-24T13:51:28;12.75;;;6.07;;
58768;SDS011;44536;47.474;19.056;2023-04-24T13:54:30;8.95;;;4.53;;
58768;SDS011;44536;47.474;19.056;2023-04-24T13:57:34;8.10;;;3.87;;
58768;SDS011;44536;47.474;19.056;2023-04-24T14:00:37;7.15;;;4.37;;
58768;SDS011;44536;47.474;19.056;2023-04-24T14:03:41;10.90;;;4.93;;
58768;SDS011;44536;47.474;19.056;2023-04-24T14:06:49;11.43;;;5.37;;
58768;SDS011;44536;47.474;19.056;2023-04-24T14:09:52;8.57;;;5.87;;
58768;SDS011;44536;47.474;19.056;2023-04-24T14:12:54;10.45;;;5.03;;
58768;SDS011;44536;47.474;19.056;2023-04-24T14:15:57;11.97;;;7.17;;
58768;SDS011;44536;47.474;19.056;2023-04-24T14:19:00;11.88;;;6.45;;
58768;SDS011;44536;47.474;19.056;2023-04-24T14:22:02;14.40;;;6.97;;
58768;SDS011;44536;47.474;19.056;2023-04-24T14:25:05;14.02;;;6.25;;
58768;SDS011;44536;47.474;19.056;2023-04-24T14:28:08;11.63;;;6.60;;
58768;SDS011;44536;47.474;19.056;2023-04-24T14:31:10;11.25;;;6.32;;
58768;SDS011;44536;47.474;19.056;2023-04-24T14:34:13;11.87;;;7.40;;
58768;SDS011;44536;47.474;19.056;2023-04-24T14:37:16;9.40;;;6.30;;
58768;SDS011;44536;47.474;19.056;2023-04-24T14:40:18;11.70;;;7.70;;
58768;SDS011;44536;47.474;19.056;2023-04-24T14:43:40;17.65;;;7.68;;
58768;SDS011;44536;47.474;19.056;2023-04-24T14:46:43;14.50;;;7.23;;
58768;SDS011;44536;47.474;19.056;2023-04-24T14:49:45;12.45;;;7.10;;
58768;SDS011;44536;47.474;19.056;2023-04-24T14:55:51;14.27;;;7.80;;
58768;SDS011;44536;47.474;19.056;2023-04-24T14:58:54;13.13;;;9.15;;
58768;SDS011;44536;47.474;19.056;2023-04-24T15:01:57;14.27;;;8.95;;
58768;SDS011;44536;47.474;19.056;2023-04-24T15:05:16;16.20;;;8.93;;
58768;SDS011;44536;47.474;19.056;2023-04-24T15:08:19;17.13;;;9.40;;
58768;SDS011;44536;47.474;19.056;2023-04-24T15:11:21;14.45;;;9.50;;
58768;SDS011;44536;47.474;19.056;2023-04-24T15:14:23;15.00;;;9.50;;
58768;SDS011;44536;47.474;19.056;2023-04-24T15:17:26;16.30;;;9.80;;
58768;SDS011;44536;47.474;19.056;2023-04-24T15:20:29;16.00;;;9.70;;
58768;SDS011;44536;47.474;19.056;2023-04-24T15:23:31;12.65;;;9.05;;
58768;SDS011;44536;47.474;19.056;2023-04-24T15:26:33;13.85;;;7.78;;
58768;SDS011;44536;47.474;19.056;2023-04-24T15:29:36;13.30;;;8.63;;
58768;SDS011;44536;47.474;19.056;2023-04-24T15:32:39;13.62;;;8.02;;
58768;SDS011;44536;47.474;19.056;2023-04-24T15:35:42;15.83;;;9.60;;
58768;SDS011;44536;47.474;19.056;2023-04-24T15:38:44;15.38;;;8.38;;
58768;SDS011;44536;47.474;19.056;2023-04-24T15:41:47;11.88;;;8.20;;
58768;SDS011;44536;47.474;19.056;2023-04-24T15:44:49;12.20;;;7.93;;
58768;SDS011;44536;47.474;19.056;2023-04-24T15:47:51;13.55;;;8.20;;
58768;SDS011;44536;47.474;19.056;2023-04-24T15:50:54;10.55;;;6.82;;
58768;SDS011;44536;47.474;19.056;2023-04-24T15:53:56;10.77;;;7.67;;
58768;SDS011;44536;47.474;19.056;2023-04-24T15:56:59;12.55;;;8.00;;
58768;SDS011;44536;47.474;19.056;2023-04-24T16:00:04;12.15;;;7.47;;
58768;SDS011;44536;47.474;19.056;2023-04-24T16:03:12;13.20;;;7.93;;
58768;SDS011;44536;47.474;19.056;2023-04-24T16:06:15;12.88;;;7.28;;
58768;SDS011;44536;47.474;19.056;2023-04-24T16:09:17;12.60;;;7.80;;
58768;SDS011;44536;47.474;19.056;2023-04-24T16:12:20;14.05;;;8.55;;
58768;SDS011;44536;47.474;19.056;2023-04-24T16:15:22;12.18;;;7.87;;
58768;SDS011;44536;47.474;19.056;2023-04-24T16:18:25;11.73;;;6.83;;
58768;SDS011;44536;47.474;19.056;2023-04-24T16:21:27;13.48;;;7.95;;
58768;SDS011;44536;47.474;19.056;2023-04-24T16:24:29;12.68;;;7.90;;
58768;SDS011;44536;47.474;19.056;2023-04-24T16:27:32;10.65;;;6.57;;
58768;SDS011;44536;47.474;19.056;2023-04-24T16:30:35;10.93;;;6.65;;
58768;SDS011;44536;47.474;19.056;2023-04-24T16:33:37;9.63;;;5.70;;
58768;SDS011;44536;47.474;19.056;2023-04-24T16:36:41;11.52;;;6.72;;
58768;SDS011;44536;47.474;19.056;2023-04-24T16:39:44;10.02;;;6.50;;
58768;SDS011;44536;47.474;19.056;2023-04-24T16:42:46;11.93;;;7.15;;
58768;SDS011;44536;47.474;19.056;2023-04-24T16:45:49;8.68;;;5.85;;
58768;SDS011;44536;47.474;19.056;2023-04-24T16:48:52;10.70;;;7.22;;
58768;SDS011;44536;47.474;19.056;2023-04-24T16:51:55;10.55;;;6.65;;
58768;SDS011;44536;47.474;19.056;2023-04-24T16:54:58;10.68;;;6.12;;
58768;SDS011;44536;47.474;19.056;2023-04-24T16:58:01;9.15;;;6.22;;
58768;SDS011;44536;47.474;19.056;2023-04-24T17:01:03;11.70;;;7.57;;
58768;SDS011;44536;47.474;19.056;2023-04-24T17:04:06;9.13;;;6.70;;
58768;SDS011;44536;47.474;19.056;2023-04-24T17:07:08;11.33;;;7.67;;
58768;SDS011;44536;47.474;19.056;2023-04-24T17:10:11;9.45;;;6.87;;
58768;SDS011;44536;47.474;19.056;2023-04-24T17:13:15;12.13;;;7.45;;
58768;SDS011;44536;47.474;19.056;2023-04-24T17:16:18;10.35;;;7.03;;
58768;SDS011;44536;47.474;19.056;2023-04-24T17:19:21;11.43;;;7.82;;
58768;SDS011;44536;47.474;19.056;2023-04-24T17:22:23;10.35;;;7.45;;
58768;SDS011;44536;47.474;19.056;2023-04-24T17:25:26;9.17;;;6.47;;
58768;SDS011;44536;47.474;19.056;2023-04-24T17:28:29;12.07;;;6.45;;
58768;SDS011;44536;47.474;19.056;2023-04-24T17:31:33;11.07;;;7.18;;
58768;SDS011;44536;47.474;19.056;2023-04-24T17:34:35;10.18;;;6.10;;
58768;SDS011;44536;47.474;19.056;2023-04-24T17:37:38;10.80;;;6.35;;
58768;SDS011;44536;47.474;19.056;2023-04-24T17:40:40;8.68;;;5.53;;
58768;SDS011;44536;47.474;19.056;2023-04-24T17:43:45;9.82;;;5.95;;
58768;SDS011;44536;47.474;19.056;2023-04-24T17:46:48;9.32;;;6.40;;
58768;SDS011;44536;47.474;19.056;2023-04-24T17:52:53;8.27;;;5.87;;
58768;SDS011;44536;47.474;19.056;2023-04-24T17:55:56;10.00;;;6.00;;
58768;SDS011;44536;47.474;19.056;2023-04-24T17:59:02;8.75;;;5.85;;
58768;SDS011;44536;47.474;19.056;2023-04-24T18:02:05;11.38;;;6.03;;
58768;SDS011;44536;47.474;19.056;2023-04-24T18:05:07;7.37;;;5.22;;
58768;SDS011;44536;47.474;19.056;2023-04-24T18:08:10;9.15;;;6.12;;
58768;SDS011;44536;47.474;19.056;2023-04-24T18:11:12;9.00;;;6.50;;
58768;SDS011;44536;47.474;19.056;2023-04-24T18:14:15;8.17;;;5.53;;
58768;SDS011;44536;47.474;19.056;2023-04-24T18:17:18;9.23;;;4.83;;
58768;SDS011;44536;47.474;19.056;2023-04-24T18:20:20;7.90;;;3.97;;
58768;SDS011;44536;47.474;19.056;2023-04-24T18:23:23;7.70;;;5.03;;
58768;SDS011;44536;47.474;19.056;2023-04-24T18:26:25;8.23;;;3.95;;
58768;SDS011;44536;47.474;19.056;2023-04-24T18:29:28;8.85;;;4.28;;